Time;durP1;ratioP1;P1;durP2;ratioP2;P2;SDS_P1;SDS_P2;PMS_P1;PMS_P2;Temp;Humidity;BMP_temperature;BMP_pressure;BME280_temperature;BME280_humidity;BME280_pressure;Samples;Min_cycle;Max_cycle;Signal;HPM_P1;HPM_P2
2022/03/10 00:00:10;;;;;;;17.67;11.75;;;2.00;93.10;;;;;;5021021;28;20037;-77
2022/03/10 00:02:36;;;;;;;16.90;11.90;;;2.00;27.00;;;;;;5022143;28;20393;-77
2022/03/10 00:05:03;;;;;;;21.73;12.07;;;2.10;21.20;;;;;;5038502;28;20039;-77
2022/03/10 00:07:31;;;;;;;16.55;11.82;;;2.00;41.90;;;;;;5038241;28;20040;-77
2022/03/10 00:09:56;;;;;;;17.30;12.02;;;2.00;28.80;;;;;;5037048;28;20464;-78
2022/03/10 00:12:22;;;;;;;22.00;12.48;;;2.00;1.00;;;;;;5022660;28;20056;-77
2022/03/10 00:14:48;;;;;;;15.85;12.15;;;2.10;8.80;;;;;;5035123;28;20307;-77
2022/03/10 00:17:14;;;;;;;18.05;12.68;;;1.90;42.40;;;;;;5023167;28;20037;-78
2022/03/10 00:19:43;;;;;;;19.70;11.85;;;2.00;43.50;;;;;;5035614;28;20067;-78
2022/03/10 00:22:11;;;;;;;19.10;12.77;;;1.90;66.90;;;;;;5037539;28;21324;-77
2022/03/10 00:24:38;;;;;;;17.33;12.43;;;1.80;99.90;;;;;;5034006;28;20412;-77
2022/03/10 00:27:04;;;;;;;21.92;13.75;;;1.80;99.90;;;;;;5038195;28;20106;-77
2022/03/10 00:29:30;;;;;;;19.88;12.95;;;1.70;99.90;;;;;;5022991;28;20037;-77
2022/03/10 00:31:56;;;;;;;19.00;13.60;;;1.70;99.90;;;;;;5022679;28;20408;-77
2022/03/10 00:34:21;;;;;;;18.65;13.80;;;1.50;99.90;;;;;;5020449;28;20369;-77
2022/03/10 00:36:47;;;;;;;19.65;13.18;;;1.50;99.90;;;;;;5038427;28;20041;-77
2022/03/10 00:39:13;;;;;;;21.15;13.18;;;1.40;99.90;;;;;;5023041;28;20040;-77
2022/03/10 00:41:38;;;;;;;21.17;14.15;;;1.30;99.90;;;;;;5036516;28;20044;-77
2022/03/10 00:44:05;;;;;;;21.55;13.32;;;1.30;99.90;;;;;;5038220;28;20345;-77
2022/03/10 00:46:30;;;;;;;19.00;12.52;;;1.20;99.90;;;;;;5038330;28;20484;-77
2022/03/10 00:48:56;;;;;;;17.52;12.38;;;1.20;99.90;;;;;;5037024;28;20094;-77
2022/03/10 00:51:21;;;;;;;18.88;12.63;;;1.20;99.90;;;;;;5033625;28;20060;-77
2022/03/10 00:53:50;;;;;;;21.73;13.00;;;1.20;99.90;;;;;;5038387;28;20480;-77
2022/03/10 00:56:16;;;;;;;22.92;13.20;;;1.10;99.90;;;;;;5034922;28;20183;-78
2022/03/10 00:58:41;;;;;;;20.25;13.73;;;1.10;99.90;;;;;;5035744;28;20199;-77
2022/03/10 01:01:08;;;;;;;18.98;13.13;;;1.00;99.90;;;;;;5020514;28;20047;-77
2022/03/10 01:03:34;;;;;;;19.10;13.30;;;0.90;99.90;;;;;;5018209;28;20056;-77
2022/03/10 01:05:59;;;;;;;21.02;12.75;;;0.80;99.90;;;;;;5035882;28;20037;-78
2022/03/10 01:08:25;;;;;;;20.40;13.48;;;0.80;99.90;;;;;;5021385;28;20037;-77
2022/03/10 01:10:53;;;;;;;19.35;13.77;;;0.80;99.90;;;;;;5019265;28;20044;-77
2022/03/10 01:13:23;;;;;;;24.48;13.82;;;0.80;99.90;;;;;;5020054;28;20657;-77
2022/03/10 01:15:51;;;;;;;23.50;13.70;;;0.70;99.90;;;;;;5020063;28;20044;-77
2022/03/10 01:18:17;;;;;;;18.38;12.85;;;0.60;1.00;;;;;;5035771;28;20214;-78
2022/03/10 01:20:46;;;;;;;19.83;13.43;;;0.60;1.00;;;;;;5019730;28;20629;-78
2022/03/10 01:23:15;;;;;;;19.98;13.65;;;0.60;1.00;;;;;;5039847;28;20041;-78
2022/03/10 01:25:40;;;;;;;19.35;13.30;;;0.60;1.00;;;;;;5019644;28;20041;-78
2022/03/10 01:28:06;;;;;;;19.85;13.57;;;0.50;99.90;;;;;;5025173;28;20048;-78
2022/03/10 01:30:32;;;;;;;19.75;13.85;;;0.50;99.90;;;;;;5026840;28;20131;-78
2022/03/10 01:32:58;;;;;;;21.95;13.57;;;0.50;99.90;;;;;;5024645;28;20037;-78
2022/03/10 01:35:23;;;;;;;19.33;13.02;;;0.50;1.00;;;;;;5023838;28;20276;-78
2022/03/10 01:37:49;;;;;;;23.20;14.23;;;0.50;1.00;;;;;;5040891;28;20041;-78
2022/03/10 01:40:17;;;;;;;18.77;13.10;;;0.50;1.00;;;;;;5023999;28;20037;-79
2022/03/10 01:42:44;;;;;;;20.02;12.55;;;0.50;1.00;;;;;;5024903;28;20747;-78
2022/03/10 01:45:11;;;;;;;19.23;13.05;;;0.50;1.00;;;;;;5040031;28;20468;-78
2022/03/10 01:47:40;;;;;;;19.85;12.52;;;0.50;1.00;;;;;;5041627;28;20045;-78
2022/03/10 01:50:08;;;;;;;18.73;12.38;;;0.50;99.90;;;;;;5040111;28;20163;-78
2022/03/10 01:52:34;;;;;;;19.52;13.57;;;0.50;99.90;;;;;;5025905;28;20037;-78
2022/03/10 01:55:01;;;;;;;20.60;13.63;;;0.50;1.00;;;;;;5024334;28;20041;-78
2022/03/10 01:57:27;;;;;;;24.98;15.32;;;0.50;1.00;;;;;;5024829;28;20496;-78
2022/03/10 01:59:53;;;;;;;20.52;13.50;;;0.50;1.00;;;;;;5041098;28;20041;-78
2022/03/10 02:02:21;;;;;;;20.25;14.65;;;0.50;99.90;;;;;;5023809;28;20091;-78
2022/03/10 02:04:47;;;;;;;19.63;13.75;;;0.40;99.90;;;;;;5040029;28;20037;-78
2022/03/10 02:10:17;;;;;;;21.98;14.95;;;0.40;99.90;;;;;;5038996;28;20064;-78
2022/03/10 02:12:51;;;;;;;22.20;14.18;;;0.30;99.90;;;;;;5020936;28;20357;-78
2022/03/10 02:18:07;;;;;;;20.65;14.15;;;0.10;99.90;;;;;;5041816;28;20044;-78
2022/03/10 02:20:34;;;;;;;20.70;14.20;;;0.10;99.90;;;;;;5024933;28;20040;-78
2022/03/10 02:22:59;;;;;;;21.25;13.75;;;0.10;99.90;;;;;;5025591;28;20068;-78
2022/03/10 02:25:27;;;;;;;22.65;14.23;;;0.10;54.10;;;;;;5024479;28;20412;-78
2022/03/10 02:27:59;;;;;;;21.85;14.43;;;0.10;57.70;;;;;;5024861;28;20131;-78
2022/03/10 02:30:28;;;;;;;20.25;15.23;;;0.00;70.10;;;;;;5023938;28;20047;-78
2022/03/10 02:32:54;;;;;;;21.13;15.13;;;0.00;99.90;;;;;;5038083;28;20109;-78
2022/03/10 02:35:20;;;;;;;22.38;14.98;;;0.00;99.90;;;;;;5038736;28;20041;-78
2022/03/10 02:37:45;;;;;;;22.55;14.77;;;0.00;99.90;;;;;;5039457;28;20416;-78
2022/03/10 02:40:14;;;;;;;21.33;14.13;;;-0.10;99.90;;;;;;5023943;28;20076;-78
2022/03/10 02:42:40;;;;;;;22.13;14.18;;;-0.10;99.90;;;;;;5039993;28;20484;-78
2022/03/10 02:45:08;;;;;;;20.80;13.68;;;-0.10;99.90;;;;;;5038728;28;20052;-78
2022/03/10 02:47:34;;;;;;;22.83;14.98;;;0.00;99.90;;;;;;5062073;28;20110;-78
2022/03/10 02:50:07;;;;;;;21.50;15.00;;;0.00;99.90;;;;;;5024843;28;20170;-77
2022/03/10 02:52:37;;;;;;;21.83;14.13;;;-0.10;99.90;;;;;;5038670;28;20144;-78
2022/03/10 02:55:07;;;;;;;22.08;14.63;;;-0.10;99.90;;;;;;5040789;28;20058;-78
2022/03/10 02:57:34;;;;;;;23.30;14.63;;;-0.20;99.90;;;;;;5023637;28;20067;-77
2022/03/10 03:00:03;;;;;;;23.42;14.60;;;-0.20;99.90;;;;;;5038761;28;20625;-77
2022/03/10 03:02:29;;;;;;;22.52;14.98;;;-0.30;99.90;;;;;;5023798;28;20222;-78
2022/03/10 03:04:55;;;;;;;22.38;14.40;;;-0.30;99.90;;;;;;5021638;28;20044;-77
2022/03/10 03:07:21;;;;;;;21.20;14.38;;;-0.30;99.90;;;;;;5020920;28;20163;-77
2022/03/10 03:09:50;;;;;;;22.13;14.52;;;-0.40;99.90;;;;;;5020081;28;20044;-77
2022/03/10 03:12:16;;;;;;;20.17;14.07;;;-0.40;99.90;;;;;;5024503;28;20157;-78
2022/03/10 03:14:42;;;;;;;20.80;13.65;;;-0.40;99.90;;;;;;5023916;28;20489;-78
2022/03/10 03:17:07;;;;;;;24.17;14.77;;;-0.40;99.90;;;;;;5022695;28;20136;-78
2022/03/10 03:19:34;;;;;;;22.02;14.52;;;-0.30;99.90;;;;;;5038930;28;20140;-78
2022/03/10 03:21:59;;;;;;;22.20;13.55;;;-0.30;99.90;;;;;;5037983;28;20127;-78
2022/03/10 03:24:25;;;;;;;22.23;15.07;;;-0.30;99.90;;;;;;5021340;28;20044;-78
2022/03/10 03:26:50;;;;;;;20.83;14.73;;;-0.40;99.90;;;;;;5020559;28;20044;-78
2022/03/10 03:29:17;;;;;;;25.55;15.15;;;-0.30;99.90;;;;;;5020425;28;20045;-78
2022/03/10 03:31:43;;;;;;;23.80;14.98;;;-0.30;99.90;;;;;;5038574;28;20095;-78
2022/03/10 03:34:11;;;;;;;21.27;14.05;;;-0.30;99.90;;;;;;5022672;28;20695;-78
2022/03/10 03:36:42;;;;;;;23.33;14.98;;;-0.30;99.90;;;;;;5022249;28;20069;-78
2022/03/10 03:39:12;;;;;;;24.60;14.90;;;-0.30;99.90;;;;;;5037263;28;20052;-78
2022/03/10 03:41:38;;;;;;;20.48;14.20;;;-0.30;99.90;;;;;;5022628;28;20068;-78
2022/03/10 03:44:06;;;;;;;23.13;14.32;;;-0.30;99.90;;;;;;5036537;28;20073;-78
2022/03/10 03:46:32;;;;;;;20.20;14.40;;;-0.30;99.90;;;;;;5022874;28;20040;-78
2022/03/10 03:48:58;;;;;;;22.05;13.75;;;-0.30;99.90;;;;;;5038691;28;20045;-78
2022/03/10 03:51:26;;;;;;;21.52;15.15;;;-0.30;99.90;;;;;;5022033;28;20052;-78
2022/03/10 03:53:52;;;;;;;20.05;14.50;;;-0.40;99.90;;;;;;5022442;28;20118;-78
2022/03/10 03:56:20;;;;;;;20.83;13.18;;;-0.30;99.90;;;;;;5020105;28;20087;-78
2022/03/10 03:58:49;;;;;;;22.75;14.88;;;-0.20;99.90;;;;;;5038423;28;20037;-78
2022/03/10 04:01:15;;;;;;;20.85;13.65;;;-0.20;99.90;;;;;;5037542;28;20064;-78
2022/03/10 04:03:46;;;;;;;21.33;13.07;;;-0.30;99.90;;;;;;5038244;28;20041;-78
2022/03/10 04:06:12;;;;;;;19.20;12.55;;;-0.30;99.90;;;;;;5022679;28;20048;-78
2022/03/10 04:08:38;;;;;;;19.17;12.27;;;-0.30;12.70;;;;;;5020564;28;20047;-78
2022/03/10 04:11:03;;;;;;;20.05;13.43;;;-0.20;1.00;;;;;;5020144;28;20045;-78
2022/03/10 04:13:29;;;;;;;20.60;14.02;;;-0.30;1.00;;;;;;5039808;28;20424;-78
2022/03/10 04:15:54;;;;;;;21.20;13.30;;;-0.30;1.00;;;;;;5021859;28;20041;-78
2022/03/10 04:18:20;;;;;;;23.13;14.13;;;-0.30;1.00;;;;;;5041039;28;20149;-79
2022/03/10 04:20:49;;;;;;;19.83;14.10;;;-0.30;1.00;;;;;;5022567;28;20066;-79
2022/03/10 04:23:15;;;;;;;18.90;13.80;;;-0.40;99.90;;;;;;5020277;28;20100;-78
2022/03/10 04:25:45;;;;;;;23.30;14.70;;;-0.30;99.90;;;;;;5019963;28;20095;-79
2022/03/10 04:28:10;;;;;;;21.58;14.50;;;-0.40;99.90;;;;;;5039926;28;20049;-78
2022/03/10 04:30:38;;;;;;;22.95;15.10;;;-0.40;99.90;;;;;;5032859;28;20064;-79
2022/03/10 04:33:04;;;;;;;22.75;14.55;;;-0.40;99.90;;;;;;5019973;28;20103;-79
2022/03/10 04:35:29;;;;;;;22.70;14.77;;;-0.40;99.90;;;;;;5039299;28;20392;-79
2022/03/10 04:37:55;;;;;;;21.08;13.88;;;-0.50;99.90;;;;;;5037509;28;20086;-79
2022/03/10 04:40:22;;;;;;;20.30;13.93;;;-0.50;99.90;;;;;;5036541;28;20481;-79
2022/03/10 04:42:49;;;;;;;21.77;14.25;;;-0.40;99.90;;;;;;5022459;28;20040;-79
2022/03/10 04:45:18;;;;;;;24.20;14.25;;;-0.30;99.90;;;;;;5019469;28;20135;-79
2022/03/10 04:47:44;;;;;;;19.83;13.73;;;-0.30;99.90;;;;;;5037629;28;20041;-79
2022/03/10 04:50:12;;;;;;;21.65;13.85;;;-0.30;99.90;;;;;;5021760;28;20051;-79
2022/03/10 04:52:38;;;;;;;21.52;14.52;;;-0.30;99.90;;;;;;5023023;28;20388;-79
2022/03/10 04:55:06;;;;;;;21.95;14.73;;;-0.40;99.90;;;;;;5035250;28;20111;-79
2022/03/10 04:57:34;;;;;;;20.45;14.25;;;-0.40;99.90;;;;;;5021480;28;20399;-79
2022/03/10 05:00:01;;;;;;;24.70;14.07;;;-0.40;99.90;;;;;;5021094;28;20040;-79
2022/03/10 05:02:27;;;;;;;24.40;14.25;;;-0.50;99.90;;;;;;5036340;28;20449;-79
2022/03/10 05:04:55;;;;;;;20.92;13.73;;;-0.50;99.90;;;;;;5035104;28;20467;-79
2022/03/10 05:07:21;;;;;;;20.23;13.68;;;-0.50;99.90;;;;;;5038636;28;20033;-79
2022/03/10 05:09:53;;;;;;;21.65;13.88;;;-0.50;99.90;;;;;;5038307;28;20468;-79
2022/03/10 05:12:19;;;;;;;20.25;13.93;;;-0.50;99.90;;;;;;5021148;28;20451;-79
2022/03/10 05:14:44;;;;;;;19.67;13.05;;;-0.50;99.90;;;;;;5035515;28;20167;-79
2022/03/10 05:17:10;;;;;;;20.15;13.48;;;-0.50;99.90;;;;;;5022155;28;20040;-79
2022/03/10 05:19:35;;;;;;;22.13;14.20;;;-0.50;92.20;;;;;;5036712;28;20179;-79
2022/03/10 05:22:01;;;;;;;20.92;13.40;;;-0.50;80.20;;;;;;5022583;28;20477;-79
2022/03/10 05:24:29;;;;;;;21.10;13.82;;;-0.50;58.80;;;;;;5019514;28;20091;-79
2022/03/10 05:26:58;;;;;;;19.45;13.15;;;-0.50;24.10;;;;;;5020924;28;20456;-79
2022/03/10 05:29:23;;;;;;;24.42;13.57;;;-0.50;33.60;;;;;;5020020;28;20056;-79
2022/03/10 05:31:49;;;;;;;19.27;13.60;;;-0.50;73.00;;;;;;5037953;28;20488;-79
2022/03/10 05:34:15;;;;;;;19.48;12.75;;;-0.50;65.60;;;;;;5019778;28;20076;-79
2022/03/10 05:36:40;;;;;;;22.30;14.10;;;-0.50;48.30;;;;;;5038368;28;20041;-79
2022/03/10 05:39:06;;;;;;;19.83;13.90;;;-0.40;76.80;;;;;;5016970;28;20045;-79
2022/03/10 05:41:32;;;;;;;17.33;13.07;;;-0.40;96.40;;;;;;5034126;28;20035;-79
2022/03/10 05:43:59;;;;;;;21.80;13.98;;;-0.50;99.90;;;;;;5021072;28;20439;-79
2022/03/10 05:46:25;;;;;;;24.67;14.30;;;-0.40;99.90;;;;;;5019566;28;20041;-79
2022/03/10 05:48:50;;;;;;;20.83;13.68;;;-0.40;99.90;;;;;;5020785;28;20057;-79
2022/03/10 05:51:16;;;;;;;20.67;13.30;;;-0.40;99.90;;;;;;5020793;28;20048;-79
2022/03/10 05:53:42;;;;;;;20.85;13.73;;;-0.40;99.90;;;;;;5035670;28;20211;-79
2022/03/10 05:56:07;;;;;;;21.15;13.50;;;-0.40;99.90;;;;;;5018649;28;20896;-79
2022/03/10 05:58:33;;;;;;;20.38;14.13;;;-0.40;99.90;;;;;;5035799;28;20439;-79
2022/03/10 06:01:01;;;;;;;23.05;13.65;;;-0.40;99.90;;;;;;5020407;28;20041;-79
2022/03/10 06:03:27;;;;;;;22.08;14.25;;;-0.40;99.90;;;;;;5036083;28;20040;-79
2022/03/10 06:05:53;;;;;;;20.08;13.80;;;-0.40;99.90;;;;;;5036044;28;20611;-79
2022/03/10 06:08:18;;;;;;;19.40;13.05;;;-0.40;99.90;;;;;;5018934;28;20045;-79
2022/03/10 06:10:44;;;;;;;18.40;12.88;;;-0.40;92.10;;;;;;5020673;28;20040;-79
2022/03/10 06:13:10;;;;;;;21.75;14.13;;;-0.30;95.70;;;;;;5040341;28;20091;-79
2022/03/10 06:15:36;;;;;;;21.95;12.57;;;-0.30;76.90;;;;;;5039252;28;20072;-79
2022/03/10 06:18:02;;;;;;;19.60;12.80;;;-0.30;71.00;;;;;;5026399;28;20037;-78
2022/03/10 06:20:30;;;;;;;25.13;14.02;;;-0.30;95.50;;;;;;5035235;28;20049;-79
2022/03/10 06:22:58;;;;;;;21.10;14.00;;;-0.30;90.70;;;;;;5035987;28;20357;-79
2022/03/10 06:25:24;;;;;;;20.27;13.63;;;-0.20;91.70;;;;;;5024151;28;20033;-79
2022/03/10 06:27:49;;;;;;;19.77;13.18;;;-0.20;49.70;;;;;;5040880;28;20510;-79
2022/03/10 06:30:15;;;;;;;21.52;13.98;;;-0.20;11.60;;;;;;5052478;28;20136;-79
2022/03/10 06:32:40;;;;;;;18.67;13.48;;;-0.10;84.00;;;;;;5016975;28;20353;-78
2022/03/10 06:35:07;;;;;;;23.35;13.65;;;-0.10;63.00;;;;;;5021531;28;20077;-79
2022/03/10 06:37:33;;;;;;;21.52;12.88;;;-0.10;96.60;;;;;;5026095;28;20120;-79
2022/03/10 06:39:59;;;;;;;19.95;13.77;;;0.00;63.10;;;;;;5021513;28;20080;-79
2022/03/10 06:42:30;;;;;;;21.25;12.52;;;0.10;21.10;;;;;;5037010;28;20033;-80
2022/03/10 06:44:55;;;;;;;24.08;13.52;;;0.10;1.00;;;;;;5023072;28;20126;-79
2022/03/10 06:47:21;;;;;;;19.65;13.18;;;0.10;1.00;;;;;;5025026;28;20052;-79
2022/03/10 06:49:47;;;;;;;21.38;13.82;;;0.20;22.90;;;;;;5021055;28;20120;-79
2022/03/10 06:52:12;;;;;;;22.42;13.63;;;0.30;15.30;;;;;;5018417;28;20091;-79
2022/03/10 06:54:39;;;;;;;21.88;13.18;;;0.30;92.50;;;;;;5039849;28;20046;-79
2022/03/10 06:57:06;;;;;;;22.25;12.70;;;0.50;21.80;;;;;;5022185;28;20048;-79
2022/03/10 06:59:35;;;;;;;22.20;13.32;;;0.50;1.00;;;;;;5058636;28;20536;-79
2022/03/10 07:02:01;;;;;;;21.58;13.07;;;0.70;1.00;;;;;;5020987;28;20461;-79
2022/03/10 07:04:26;;;;;;;20.98;13.27;;;0.70;1.00;;;;;;5024008;28;20119;-79
2022/03/10 07:06:52;;;;;;;22.20;13.73;;;0.80;1.00;;;;;;5038321;28;20132;-79
2022/03/10 07:09:19;;;;;;;23.25;13.27;;;0.90;1.00;;;;;;5036214;28;20104;-79
2022/03/10 07:11:45;;;;;;;22.85;14.10;;;0.90;1.00;;;;;;5020756;28;20041;-79
2022/03/10 07:14:10;;;;;;;21.85;14.35;;;1.00;67.10;;;;;;5022523;28;20079;-79
2022/03/10 07:16:36;;;;;;;22.33;14.32;;;1.20;84.70;;;;;;5033325;28;20052;-79
2022/03/10 07:19:02;;;;;;;22.88;13.85;;;1.30;33.70;;;;;;5038277;28;20043;-79
2022/03/10 07:21:27;;;;;;;21.10;14.38;;;1.40;1.00;;;;;;5019965;28;20132;-79
2022/03/10 07:23:53;;;;;;;20.20;13.63;;;1.50;1.00;;;;;;5022176;28;20459;-79
2022/03/10 07:26:20;;;;;;;22.52;14.13;;;1.60;1.00;;;;;;5036910;28;20033;-79
2022/03/10 07:28:52;;;;;;;18.65;13.32;;;1.70;1.00;;;;;;5003202;28;20393;-79
2022/03/10 07:31:18;;;;;;;21.42;14.02;;;1.80;1.00;;;;;;5020765;28;20059;-79
2022/03/10 07:33:44;;;;;;;20.92;13.55;;;2.00;1.00;;;;;;5017607;28;20033;-79
2022/03/10 07:36:12;;;;;;;20.35;13.55;;;2.00;99.90;;;;;;5033791;28;20691;-79
2022/03/10 07:38:38;;;;;;;23.25;13.70;;;2.10;99.90;;;;;;5021115;28;20226;-79
2022/03/10 07:41:06;;;;;;;20.95;12.52;;;2.30;99.90;;;;;;5016984;28;20180;-78
2022/03/10 07:43:32;;;;;;;18.42;12.95;;;2.50;99.90;;;;;;5048118;28;20417;-78
2022/03/10 07:45:58;;;;;;;20.80;13.32;;;2.60;99.90;;;;;;5027237;28;20126;-78
2022/03/10 07:48:23;;;;;;;18.20;12.55;;;2.80;99.90;;;;;;5022117;28;20128;-78
2022/03/10 07:50:57;;;;;;;21.77;13.50;;;2.90;99.90;;;;;;5017459;28;20116;-78
2022/03/10 07:53:32;;;;;;;18.30;12.40;;;3.10;99.90;;;;;;4996470;28;20509;-78
2022/03/10 07:55:58;;;;;;;25.38;13.80;;;3.20;99.90;;;;;;5030154;28;20448;-78
2022/03/10 07:58:25;;;;;;;21.58;13.02;;;3.40;99.90;;;;;;5021774;28;20056;-79
2022/03/10 08:00:51;;;;;;;20.15;12.77;;;3.50;99.90;;;;;;5028449;28;20121;-79
2022/03/10 08:03:17;;;;;;;18.83;12.68;;;3.60;99.90;;;;;;4999697;28;20041;-78
2022/03/10 08:05:44;;;;;;;19.65;12.65;;;3.70;99.90;;;;;;5025878;28;20056;-78
2022/03/10 08:08:09;;;;;;;19.45;13.05;;;3.90;99.90;;;;;;5008815;28;20121;-78
2022/03/10 08:10:37;;;;;;;21.15;12.85;;;4.10;99.90;;;;;;5016683;28;20345;-78
2022/03/10 08:13:03;;;;;;;22.38;13.35;;;4.20;99.90;;;;;;5016501;28;20471;-78
2022/03/10 08:15:29;;;;;;;20.02;12.80;;;4.30;99.90;;;;;;5016386;28;20038;-78
2022/03/10 08:17:55;;;;;;;17.70;12.35;;;4.50;99.90;;;;;;5015881;28;20041;-78
2022/03/10 08:20:20;;;;;;;17.65;12.07;;;4.60;57.40;;;;;;4999154;28;20476;-78
2022/03/10 08:22:46;;;;;;;16.17;12.30;;;4.70;1.00;;;;;;5034152;28;20041;-78
2022/03/10 08:25:12;;;;;;;17.75;12.48;;;4.90;1.00;;;;;;5015379;28;20037;-78
2022/03/10 08:27:38;;;;;;;17.40;12.23;;;5.00;9.80;;;;;;5017003;28;20072;-78
2022/03/10 08:30:04;;;;;;;17.38;12.23;;;5.20;1.00;;;;;;5042737;28;20508;-78
2022/03/10 08:32:33;;;;;;;18.45;11.68;;;5.40;1.00;;;;;;4998331;28;20065;-78
2022/03/10 08:34:58;;;;;;;15.18;11.65;;;5.40;1.00;;;;;;5030697;28;20538;-78
2022/03/10 08:37:24;;;;;;;16.92;12.68;;;5.50;1.00;;;;;;5008027;28;20038;-78
2022/03/10 08:39:50;;;;;;;16.15;12.38;;;5.70;1.00;;;;;;5039180;28;20462;-78
2022/03/10 08:42:15;;;;;;;17.23;11.98;;;5.80;1.00;;;;;;4998496;28;20300;-78
2022/03/10 08:44:41;;;;;;;18.48;12.25;;;6.00;1.00;;;;;;5009937;28;20132;-77
2022/03/10 08:47:10;;;;;;;17.75;12.07;;;6.20;1.00;;;;;;5031290;28;20056;-78
2022/03/10 08:49:35;;;;;;;19.05;11.82;;;6.30;1.00;;;;;;5044793;28;20140;-78
2022/03/10 08:52:04;;;;;;;17.10;11.82;;;6.40;1.00;;;;;;5031296;28;20112;-78
2022/03/10 08:54:30;;;;;;;19.27;11.68;;;6.50;1.00;;;;;;5032142;28;20161;-78
2022/03/10 08:56:56;;;;;;;18.55;12.25;;;6.70;1.00;;;;;;5003857;28;20506;-78
2022/03/10 08:59:22;;;;;;;16.27;12.18;;;6.90;1.00;;;;;;5000540;28;20118;-78
2022/03/10 09:01:47;;;;;;;17.45;12.23;;;6.90;99.90;;;;;;5018992;28;20037;-78
2022/03/10 09:04:13;;;;;;;16.70;12.18;;;7.00;99.90;;;;;;5031166;28;20029;-78
2022/03/10 09:06:39;;;;;;;16.08;12.50;;;7.20;99.90;;;;;;5021864;28;20476;-78
2022/03/10 09:09:05;;;;;;;16.85;11.98;;;7.30;99.90;;;;;;5047761;28;20114;-78
2022/03/10 09:11:33;;;;;;;18.17;12.63;;;7.50;99.90;;;;;;4998109;28;20069;-78
2022/03/10 09:13:59;;;;;;;17.38;12.30;;;7.60;99.90;;;;;;5007778;28;20232;-78
2022/03/10 09:16:25;;;;;;;16.15;11.60;;;7.70;99.90;;;;;;5037626;28;20413;-78
2022/03/10 09:18:51;;;;;;;17.30;13.18;;;7.90;99.90;;;;;;5031947;28;20055;-78
2022/03/10 09:21:17;;;;;;;19.25;12.25;;;8.00;99.90;;;;;;5000764;28;20042;-78
2022/03/10 09:23:44;;;;;;;18.52;12.52;;;8.20;99.90;;;;;;5025030;28;20132;-78
2022/03/10 09:26:10;;;;;;;16.08;12.05;;;8.30;99.90;;;;;;4996258;28;20038;-78
2022/03/10 09:28:35;;;;;;;18.42;12.02;;;8.40;99.90;;;;;;5000296;28;20065;-78
2022/03/10 09:31:01;;;;;;;16.67;12.43;;;8.50;99.90;;;;;;5020985;28;20540;-78
2022/03/10 09:33:27;;;;;;;16.10;12.10;;;8.70;99.90;;;;;;4999010;28;20455;-78
2022/03/10 09:35:53;;;;;;;16.77;12.13;;;8.90;99.90;;;;;;5000223;28;20045;-78
2022/03/10 09:38:19;;;;;;;18.27;12.13;;;8.90;99.90;;;;;;5008252;28;20059;-78
2022/03/10 09:40:46;;;;;;;16.67;12.68;;;9.10;99.90;;;;;;5014550;28;20036;-78
2022/03/10 09:43:12;;;;;;;19.02;12.13;;;9.20;99.90;;;;;;5041714;28;20056;-78
2022/03/10 09:45:39;;;;;;;16.50;12.57;;;9.40;99.90;;;;;;5009743;28;20449;-78
2022/03/10 09:48:04;;;;;;;19.33;12.65;;;9.60;99.90;;;;;;5052851;28;20087;-78
2022/03/10 09:50:30;;;;;;;16.38;11.98;;;9.70;99.90;;;;;;5044073;28;20461;-79
2022/03/10 09:52:56;;;;;;;15.85;11.80;;;9.80;99.90;;;;;;5019186;28;20033;-79
2022/03/10 09:55:22;;;;;;;17.25;12.55;;;9.90;99.90;;;;;;5035513;28;20515;-78
2022/03/10 09:57:53;;;;;;;16.65;12.55;;;10.10;99.90;;;;;;5022228;28;20134;-79
2022/03/10 10:00:18;;;;;;;16.17;12.30;;;10.20;99.90;;;;;;5024842;28;20108;-79
2022/03/10 10:02:45;;;;;;;21.80;12.68;;;10.30;99.90;;;;;;5046126;28;20041;-78
2022/03/10 10:05:20;;;;;;;17.90;12.70;;;10.40;99.90;;;;;;5051675;28;20091;-78
2022/03/10 10:08:06;;;;;;;;;;;10.60;99.90;;;;;;5051157;28;20049;-78
2022/03/10 10:10:34;;;;;;;17.55;12.65;;;10.60;99.90;;;;;;5022280;28;20042;-78
2022/03/10 10:13:05;;;;;;;14.68;11.70;;;10.90;99.90;;;;;;5016366;28;20037;-79
2022/03/10 10:15:35;;;;;;;16.77;12.77;;;11.00;99.90;;;;;;5006348;28;20046;-79
2022/03/10 10:18:01;;;;;;;16.90;12.00;;;11.20;99.90;;;;;;5024819;28;20034;-78
2022/03/10 10:20:31;;;;;;;15.40;11.85;;;11.20;99.90;;;;;;5001571;28;20045;-79
2022/03/10 10:23:14;;;;;;;17.98;11.77;;;11.30;99.90;;;;;;5019889;28;20291;-79
2022/03/10 10:25:51;;;;;;;16.48;11.95;;;11.40;99.90;;;;;;5028797;28;20041;-79
2022/03/10 10:28:28;;;;;;;17.55;12.40;;;11.50;99.90;;;;;;5032144;28;20085;-79
2022/03/10 10:30:56;;;;;;;20.05;13.07;;;11.80;99.90;;;;;;5035260;28;20046;-78
2022/03/10 10:33:23;;;;;;;16.65;12.80;;;11.80;99.90;;;;;;5050158;28;20044;-79
2022/03/10 10:35:49;;;;;;;16.25;12.45;;;12.10;99.90;;;;;;5021716;28;20289;-79
2022/03/10 10:38:29;;;;;;;16.80;12.90;;;12.20;99.90;;;;;;5003682;28;20418;-79
2022/03/10 10:41:18;;;;;;;17.02;13.43;;;12.30;99.90;;;;;;5000301;28;20033;-79
2022/03/10 10:43:49;;;;;;;17.08;13.05;;;12.20;99.90;;;;;;5032865;28;20136;-79
2022/03/10 10:46:43;;;;;;;19.02;13.20;;;12.30;99.90;;;;;;5035090;28;20134;-79
2022/03/10 10:49:15;;;;;;;17.42;13.10;;;12.30;99.90;;;;;;5017242;28;20061;-79
2022/03/10 10:51:43;;;;;;;15.45;12.52;;;12.50;99.90;;;;;;5019322;28;20054;-78
2022/03/10 10:54:28;;;;;;;17.77;13.23;;;12.60;99.90;;;;;;5002977;28;20045;-79
2022/03/10 10:56:55;;;;;;;;;;;12.60;99.90;;;;;;4992611;28;20120;-79
2022/03/10 10:59:37;;;;;;;19.13;13.20;;;12.80;99.90;;;;;;5004538;28;19975;-79
2022/03/10 11:02:10;;;;;;;19.58;13.30;;;12.90;99.90;;;;;;5033161;28;20305;-79
2022/03/10 11:04:41;;;;;;;19.15;13.20;;;12.90;99.90;;;;;;4998795;28;20048;-79
2022/03/10 11:07:10;;;;;;;17.35;13.45;;;13.10;99.90;;;;;;5042102;28;20092;-79
2022/03/10 11:09:38;;;;;;;17.73;13.55;;;13.20;99.90;;;;;;5000714;28;20060;-79
2022/03/10 11:12:04;;;;;;;16.55;13.15;;;13.40;99.90;;;;;;5032832;28;20041;-79
2022/03/10 11:14:30;;;;;;;17.30;13.38;;;13.60;99.90;;;;;;5000694;28;20053;-79
2022/03/10 11:16:57;;;;;;;18.88;14.02;;;13.50;99.90;;;;;;5033768;28;20126;-79
2022/03/10 11:19:33;;;;;;;23.30;13.73;;;13.60;99.90;;;;;;5023800;28;20449;-79
2022/03/10 11:22:37;;;;;;;17.55;12.63;;;13.70;99.90;;;;;;5017442;28;20169;-79
2022/03/10 11:25:06;;;;;;;21.63;13.57;;;13.80;99.90;;;;;;5012834;28;20037;-79
2022/03/10 11:27:39;;;;;;;20.02;13.75;;;13.80;99.90;;;;;;5028939;28;20746;-79
2022/03/10 11:30:07;;;;;;;19.50;13.85;;;14.00;99.90;;;;;;5030667;28;20041;-79
2022/03/10 11:32:33;;;;;;;16.27;13.32;;;14.10;99.90;;;;;;5043946;28;20072;-79
2022/03/10 11:35:00;;;;;;;17.95;13.38;;;14.10;99.90;;;;;;5030147;28;20076;-79
2022/03/10 11:37:42;;;;;;;18.58;13.95;;;14.40;99.90;;;;;;5015614;28;20029;-79
2022/03/10 11:40:20;;;;;;;20.05;13.38;;;14.40;99.90;;;;;;5045964;28;20180;-79
2022/03/10 11:42:46;;;;;;;17.70;13.35;;;14.40;99.90;;;;;;4999257;28;20064;-79
2022/03/10 11:45:20;;;;;;;18.38;13.55;;;14.50;99.90;;;;;;5014545;28;20069;-79
2022/03/10 11:47:48;;;;;;;18.88;14.23;;;14.70;99.90;;;;;;5012509;28;20052;-79
2022/03/10 11:50:22;;;;;;;20.10;13.13;;;14.70;99.90;;;;;;5046626;28;20164;-79
2022/03/10 11:53:06;;;;;;;18.23;14.07;;;14.70;99.90;;;;;;5001972;28;20095;-80
2022/03/10 11:55:43;;;;;;;22.13;14.60;;;14.70;99.90;;;;;;5042270;28;20444;-79
2022/03/10 11:58:10;;;;;;;17.30;13.55;;;15.00;99.90;;;;;;5022301;28;20191;-79
2022/03/10 12:00:46;;;;;;;20.30;14.13;;;14.80;99.90;;;;;;5013281;28;20044;-79
2022/03/10 12:03:24;;;;;;;18.60;14.05;;;15.00;99.90;;;;;;5015062;28;21186;-80
2022/03/10 12:05:59;;;;;;;17.98;13.57;;;14.80;99.90;;;;;;5020672;28;20239;-79
2022/03/10 12:08:30;;;;;;;17.65;13.60;;;15.00;99.90;;;;;;5018751;28;20285;-79
2022/03/10 12:11:00;;;;;;;17.33;13.52;;;15.00;99.90;;;;;;5047629;28;20045;-79
2022/03/10 12:13:37;;;;;;;18.52;13.30;;;15.20;99.90;;;;;;5034113;28;20560;-80
2022/03/10 12:16:08;;;;;;;19.60;13.73;;;15.20;99.90;;;;;;5033688;28;20338;-80
2022/03/10 12:18:43;;;;;;;19.67;14.38;;;15.50;99.90;;;;;;5027705;28;20041;-79
2022/03/10 12:21:25;;;;;;;19.42;13.63;;;15.40;99.90;;;;;;5023847;28;20120;-79
2022/03/10 12:23:53;;;;;;;16.98;13.30;;;15.30;99.90;;;;;;5013193;28;20110;-80
2022/03/10 12:26:33;;;;;;;18.52;14.07;;;15.70;99.90;;;;;;5043877;28;20120;-79
2022/03/10 12:29:06;;;;;;;18.73;13.57;;;15.70;99.90;;;;;;4994477;28;20082;-79
2022/03/10 12:31:35;;;;;;;19.50;13.68;;;16.10;99.90;;;;;;5031156;28;20045;-79
2022/03/10 12:34:06;;;;;;;18.65;13.73;;;15.90;99.90;;;;;;5030845;28;20080;-79
2022/03/10 12:36:36;;;;;;;21.90;14.23;;;15.80;99.90;;;;;;5044425;28;20038;-79
2022/03/10 12:39:07;;;;;;;18.10;13.90;;;16.30;99.90;;;;;;4997384;28;20501;-79
2022/03/10 12:41:41;;;;;;;20.63;13.18;;;16.20;99.90;;;;;;5028947;28;20503;-79